Time;durP1;ratioP1;P1;durP2;ratioP2;P2;SDS_P1;SDS_P2;PMS_P1;PMS_P2;Temp;Humidity;BMP_temperature;BMP_pressure;BME280_temperature;BME280_humidity;BME280_pressure;Samples;Min_cycle;Max_cycle;Signal;HPM_P1;HPM_P2
2022/05/25 00:01:58;;;;;;;3.63;2.70;;;;;;;17.76;90.09;99850.75;4999153;28;20026;-74
2022/05/25 00:04:24;;;;;;;5.55;3.25;;;;;;;17.74;90.04;99849.75;5017061;28;20038;-74
2022/05/25 00:06:50;;;;;;;3.85;3.13;;;;;;;17.69;89.47;99849.28;5016440;28;20033;-73
2022/05/25 00:09:16;;;;;;;5.03;3.03;;;;;;;17.63;89.35;99844.88;5016677;28;20025;-74
2022/05/25 00:11:42;;;;;;;4.68;3.05;;;;;;;17.58;89.58;99845.69;5015396;28;20026;-73
2022/05/25 00:14:08;;;;;;;3.75;3.25;;;;;;;17.55;89.90;99852.53;5016569;28;20426;-74
2022/05/25 00:16:34;;;;;;;5.35;3.47;;;;;;;17.53;90.15;99847.31;5015164;28;20109;-74
2022/05/25 00:21:59;;;;;;;3.78;3.45;;;;;;;17.50;90.00;99853.38;5016302;28;20056;-74
2022/05/25 00:24:27;;;;;;;4.53;3.60;;;;;;;17.47;90.12;99854.44;5015109;28;20032;-73
2022/05/25 00:26:54;;;;;;;6.72;3.92;;;;;;;17.46;90.05;99861.53;4998524;28;20030;-74
2022/05/25 00:29:28;;;;;;;5.35;3.53;;;;;;;17.44;90.50;99872.81;5014835;28;20025;-75
2022/05/25 00:31:55;;;;;;;4.03;3.22;;;;;;;17.39;90.40;99865.00;5014912;28;20026;-75
2022/05/25 00:34:22;;;;;;;5.75;3.40;;;;;;;17.41;90.38;99871.00;5015013;28;20044;-74
2022/05/25 00:36:47;;;;;;;5.88;3.63;;;;;;;17.41;90.40;99871.78;5016192;28;20076;-75
2022/05/25 00:39:13;;;;;;;4.57;3.53;;;;;;;17.41;90.48;99885.41;5014740;28;20026;-74
2022/05/25 00:41:39;;;;;;;5.60;3.83;;;;;;;17.46;90.18;99884.56;5014241;28;20033;-74
2022/05/25 00:44:05;;;;;;;5.13;3.70;;;;;;;17.48;90.07;99879.03;5015915;28;20487;-74
2022/05/25 00:46:41;;;;;;;5.45;3.30;;;;;;;17.50;89.94;99887.94;5014986;28;20026;-73
2022/05/25 00:49:26;;;;;;;5.03;3.50;;;;;;;17.54;90.00;99883.44;5014546;28;20026;-73
2022/05/25 00:52:02;;;;;;;5.43;4.03;;;;;;;17.56;89.86;99880.78;5015571;28;20054;-75
2022/05/25 00:54:30;;;;;;;5.30;3.28;;;;;;;17.57;89.65;99888.13;5014382;28;20045;-74
2022/05/25 00:57:02;;;;;;;8.70;4.38;;;;;;;17.55;89.70;99892.88;4997911;28;20478;-74
2022/05/25 00:59:33;;;;;;;7.20;4.50;;;;;;;17.58;89.49;99894.66;5000527;28;20034;-74
2022/05/25 01:01:58;;;;;;;6.10;4.47;;;;;;;17.58;89.52;99901.19;4982048;28;20080;-74
2022/05/25 01:04:33;;;;;;;5.25;4.28;;;;;;;17.58;89.73;99900.41;5015318;28;20105;-75
2022/05/25 01:07:51;;;;;;;5.28;4.78;;;;;;;17.58;89.64;99898.31;5015782;28;20030;-74
2022/05/25 01:10:38;;;;;;;4.75;4.20;;;;;;;17.55;90.01;99907.25;4954747;29;20027;-73
2022/05/25 01:13:42;;;;;;;6.43;4.60;;;;;;;17.55;90.00;99902.28;4955107;29;20413;-74
2022/05/25 01:16:33;;;;;;;5.03;4.35;;;;;;;17.49;90.83;99913.06;5004034;28;20057;-75
2022/05/25 01:19:19;;;;;;;5.65;4.00;;;;;;;17.47;91.14;99917.78;5015090;28;20033;-73
2022/05/25 01:21:48;;;;;;;5.75;4.82;;;;;;;17.47;90.18;99930.09;5015218;28;20029;-74
2022/05/25 01:24:36;;;;;;;5.65;4.57;;;;;;;17.43;90.83;99934.59;4997320;28;20029;-74
2022/05/25 01:27:22;;;;;;;6.85;3.95;;;;;;;17.45;90.72;99929.88;5014922;28;20065;-74
2022/05/25 01:29:55;;;;;;;7.28;4.32;;;;;;;17.46;90.58;99927.78;5014869;28;20101;-74
2022/05/25 01:33:07;;;;;;;4.63;4.05;;;;;;;17.46;90.73;99922.78;5015029;28;20407;-75
2022/05/25 01:36:15;;;;;;;5.82;4.07;;;;;;;17.44;91.10;99927.50;5014703;28;20042;-73
2022/05/25 01:38:50;;;;;;;8.45;4.25;;;;;;;17.45;91.08;99924.09;4961246;28;20049;-74
2022/05/25 01:41:30;;;;;;;5.13;4.45;;;;;;;17.47;91.04;99940.81;5014927;28;20121;-73
2022/05/25 01:44:22;;;;;;;6.72;4.82;;;;;;;17.46;91.05;99937.19;5013582;28;20075;-73
2022/05/25 01:47:12;;;;;;;8.05;3.92;;;;;;;17.46;91.66;99930.66;5010780;28;20050;-73
2022/05/25 01:49:46;;;;;;;4.30;3.85;;;;;;;17.46;91.48;99936.41;5014844;28;20060;-74
2022/05/25 01:52:16;;;;;;;5.80;3.95;;;;;;;17.44;91.58;99942.69;5013353;28;20025;-74
2022/05/25 01:54:56;;;;;;;4.93;4.07;;;;;;;17.43;91.76;99932.50;4996371;28;20034;-74
2022/05/25 01:57:26;;;;;;;13.13;5.55;;;;;;;17.46;91.75;99934.31;4981872;28;20064;-74
2022/05/25 01:59:53;;;;;;;5.57;4.20;;;;;;;17.45;91.25;99929.88;5013206;28;20038;-73
2022/05/25 02:05:08;;;;;;;6.45;4.35;;;;;;;17.38;92.19;99927.56;5014961;28;20037;-74
2022/05/25 02:07:48;;;;;;;6.32;4.03;;;;;;;17.39;92.24;99934.09;5013346;28;20025;-74
2022/05/25 02:10:34;;;;;;;7.22;5.28;;;;;;;17.38;91.93;99932.53;5014417;28;20105;-74
2022/05/25 02:13:24;;;;;;;9.05;5.60;;;;;;;17.36;93.30;99929.41;4996660;28;20029;-75
2022/05/25 02:16:16;;;;;;;5.20;4.70;;;;;;;17.35;94.12;99934.41;5013000;28;20026;-73
2022/05/25 02:18:49;;;;;;;5.05;4.53;;;;;;;17.32;94.07;99941.22;5014191;28;20372;-72
2022/05/25 02:21:45;;;;;;;5.10;4.60;;;;;;;17.32;93.90;99935.44;5014131;28;20037;-74
2022/05/25 02:24:34;;;;;;;12.30;6.20;;;;;;;17.28;95.68;99934.97;5014410;28;20033;-74
2022/05/25 02:27:04;;;;;;;8.18;4.90;;;;;;;17.24;94.97;99935.25;5012750;28;20030;-74
2022/05/25 02:29:38;;;;;;;6.90;5.32;;;;;;;17.20;94.48;99931.09;5012744;28;20549;-74
2022/05/25 02:32:12;;;;;;;7.05;5.15;;;;;;;17.26;94.51;99938.41;4996089;28;20099;-74
2022/05/25 02:34:41;;;;;;;5.93;4.95;;;;;;;17.23;94.27;99935.78;4980607;28;20053;-74
2022/05/25 02:37:12;;;;;;;6.93;5.65;;;;;;;17.24;93.13;99937.34;5012843;28;20037;-74
2022/05/25 02:39:38;;;;;;;7.25;5.43;;;;;;;17.22;92.67;99942.84;5012990;28;20040;-73
2022/05/25 02:42:19;;;;;;;7.35;4.47;;;;;;;17.22;91.77;99939.97;5012432;28;20387;-73
2022/05/25 02:44:45;;;;;;;5.80;5.25;;;;;;;17.17;91.84;99929.28;5012703;28;20525;-73
2022/05/25 02:47:11;;;;;;;6.75;5.13;;;;;;;17.21;93.30;99944.19;4996050;28;20037;-74
2022/05/25 02:49:39;;;;;;;8.13;5.97;;;;;;;17.23;93.64;99942.31;5013935;28;20022;-74
2022/05/25 02:52:05;;;;;;;8.02;5.72;;;;;;;17.23;93.98;99945.19;5012364;28;20038;-74
2022/05/25 02:54:37;;;;;;;7.00;6.05;;;;;;;17.24;93.75;99937.34;4980054;28;20034;-73
2022/05/25 02:57:04;;;;;;;;;;;;;;;17.21;94.39;99947.84;5012604;28;20112;-75
2022/05/25 02:59:32;;;;;;;7.00;5.28;;;;;;;17.22;94.74;99957.25;5014236;28;19917;-74
2022/05/25 03:02:01;;;;;;;7.38;5.40;;;;;;;17.21;94.85;99956.50;5013723;28;20068;-73
2022/05/25 03:04:28;;;;;;;6.78;6.07;;;;;;;17.07;94.86;99934.56;5012801;28;20041;-74
2022/05/25 03:06:55;;;;;;;7.22;6.45;;;;;;;17.22;94.97;99960.13;5013675;28;20080;-74
2022/05/25 03:09:21;;;;;;;8.80;6.30;;;;;;;17.23;94.90;99961.69;5012239;28;20498;-73
2022/05/25 03:11:46;;;;;;;9.32;6.22;;;;;;;17.22;94.73;99966.66;5013153;28;20186;-74
2022/05/25 03:14:12;;;;;;;11.13;7.35;;;;;;;17.18;95.93;99963.28;5013539;28;20519;-74
2022/05/25 03:16:39;;;;;;;11.88;6.40;;;;;;;17.17;95.66;99966.69;5013415;28;20030;-74
2022/05/25 03:19:08;;;;;;;9.07;7.05;;;;;;;17.18;96.16;99971.94;5012394;28;20069;-75
2022/05/25 03:21:34;;;;;;;10.48;6.50;;;;;;;17.15;96.44;99966.47;5013198;28;20088;-75
2022/05/25 03:24:00;;;;;;;11.75;7.00;;;;;;;17.20;96.11;99980.03;4995708;28;20037;-73
2022/05/25 03:26:26;;;;;;;11.27;7.65;;;;;;;17.19;96.71;99978.47;5012321;28;20034;-74
2022/05/25 03:29:00;;;;;;;9.00;6.60;;;;;;;17.18;97.13;99988.41;5011879;28;20037;-73
2022/05/25 03:31:25;;;;;;;10.48;7.32;;;;;;;17.19;96.50;99996.53;5012096;28;20463;-73
2022/05/25 03:33:52;;;;;;;9.52;7.43;;;;;;;17.13;97.39;99986.34;5011733;28;20100;-73
2022/05/25 03:36:19;;;;;;;12.90;9.18;;;;;;;17.13;97.50;99998.66;4995539;28;20030;-73
2022/05/25 03:38:45;;;;;;;11.93;7.53;;;;;;;17.15;97.32;100007.56;5013391;28;20026;-75
2022/05/25 03:41:15;;;;;;;10.88;7.88;;;;;;;17.13;97.05;100004.41;5013293;28;20091;-73
2022/05/25 03:43:41;;;;;;;8.73;6.72;;;;;;;17.12;96.46;100007.84;5013307;28;20030;-73
2022/05/25 03:46:08;;;;;;;9.35;6.65;;;;;;;17.10;96.47;100008.38;5013037;28;20491;-74
2022/05/25 03:48:35;;;;;;;7.00;6.30;;;;;;;17.10;96.54;100010.47;5012087;28;20072;-73
2022/05/25 03:51:01;;;;;;;13.00;7.65;;;;;;;17.04;97.28;100010.47;5013007;28;20112;-74
2022/05/25 03:53:27;;;;;;;9.90;7.40;;;;;;;17.04;97.25;100022.00;5013794;28;20080;-73
2022/05/25 03:55:52;;;;;;;9.57;7.05;;;;;;;17.03;97.25;100008.91;5013452;28;20033;-74
2022/05/25 03:58:19;;;;;;;10.00;6.82;;;;;;;16.99;97.12;100013.38;5012931;28;20042;-74
2022/05/25 04:00:45;;;;;;;8.82;6.28;;;;;;;17.00;96.80;100012.88;4995424;28;20032;-74
2022/05/25 04:03:14;;;;;;;8.85;6.30;;;;;;;16.94;96.43;100017.84;5011859;28;20022;-74
2022/05/25 04:05:44;;;;;;;8.32;6.03;;;;;;;16.97;96.47;100025.41;5012019;28;20030;-73
2022/05/25 04:08:10;;;;;;;6.53;5.55;;;;;;;16.95;95.76;100024.41;5012009;28;20068;-74
2022/05/25 04:10:36;;;;;;;5.80;4.95;;;;;;;16.93;94.52;100029.88;4995447;28;20444;-75
2022/05/25 04:13:02;;;;;;;8.50;5.47;;;;;;;16.87;94.32;100032.03;5012267;28;20467;-74
2022/05/25 04:15:37;;;;;;;6.18;4.60;;;;;;;16.79;94.46;100038.31;4995477;28;20079;-74
2022/05/25 04:18:03;;;;;;;6.20;4.82;;;;;;;16.76;94.84;100027.88;5015717;28;20084;-73
2022/05/25 04:20:30;;;;;;;7.35;5.75;;;;;;;16.73;95.61;100031.03;4999315;28;20045;-74
2022/05/25 04:22:56;;;;;;;8.38;5.93;;;;;;;16.71;95.98;100025.03;5015181;28;20034;-74
2022/05/25 04:25:38;;;;;;;8.18;5.53;;;;;;;16.74;95.90;100035.47;5016505;28;20037;-74
2022/05/25 04:28:05;;;;;;;5.88;4.95;;;;;;;16.71;95.67;100028.69;5016415;28;20030;-74
2022/05/25 04:30:31;;;;;;;5.60;4.78;;;;;;;16.74;94.85;100035.47;5016319;28;20041;-74
2022/05/25 04:32:58;;;;;;;6.65;4.90;;;;;;;16.72;94.58;100049.63;4999837;28;20026;-75
2022/05/25 04:35:26;;;;;;;7.38;5.28;;;;;;;16.69;94.67;100057.19;5056018;28;20034;-75
2022/05/25 04:37:59;;;;;;;4.43;4.03;;;;;;;16.69;95.05;100062.16;5038109;28;20099;-74
2022/05/25 04:40:31;;;;;;;6.45;5.07;;;;;;;16.69;94.99;100071.56;5056035;28;20374;-73
2022/05/25 04:43:20;;;;;;;6.82;5.10;;;;;;;16.61;95.17;100066.91;5021172;28;20434;-74
2022/05/25 04:45:46;;;;;;;7.47;5.57;;;;;;;16.54;95.22;100064.50;5038047;28;20162;-73
2022/05/25 04:48:14;;;;;;;5.65;4.80;;;;;;;16.43;95.88;100059.56;5021165;28;20029;-73
2022/05/25 04:50:42;;;;;;;5.30;4.47;;;;;;;16.31;96.32;100066.66;5038049;28;20059;-74
2022/05/25 04:53:11;;;;;;;5.53;4.88;;;;;;;16.29;96.83;100066.41;5021198;28;20021;-74
2022/05/25 04:58:43;;;;;;;7.40;4.20;;;;;;;16.25;95.61;100069.53;5040502;28;20536;-74
2022/05/25 05:01:09;;;;;;;4.70;3.67;;;;;;;16.25;95.63;100069.53;5037243;28;20029;-73
2022/05/25 05:03:37;;;;;;;5.05;3.65;;;;;;;16.21;95.15;100066.16;5004624;28;20040;-74
2022/05/25 05:06:07;;;;;;;7.57;4.15;;;;;;;16.23;95.70;100071.38;5020567;28;20025;-73
2022/05/25 05:08:34;;;;;;;6.20;3.65;;;;;;;16.21;94.89;100071.13;5021177;28;20035;-73
2022/05/25 05:11:16;;;;;;;4.78;2.95;;;;;;;16.20;93.43;100067.47;5021775;28;20539;-76
2022/05/25 05:13:42;;;;;;;3.88;3.42;;;;;;;16.19;93.98;100071.63;5054747;28;20032;-74
2022/05/25 05:16:22;;;;;;;4.95;3.15;;;;;;;16.25;93.38;100083.13;5036727;28;20040;-74
2022/05/25 05:18:48;;;;;;;4.28;3.13;;;;;;;16.23;92.76;100077.91;5054764;28;20139;-74
2022/05/25 05:21:17;;;;;;;5.97;3.28;;;;;;;16.25;93.94;100077.38;5020292;28;20025;-73
2022/05/25 05:23:44;;;;;;;5.05;4.15;;;;;;;16.20;94.08;100078.94;5054611;28;20561;-74
2022/05/25 05:26:11;;;;;;;6.25;3.78;;;;;;;16.26;94.52;100082.63;5036582;28;20036;-74
2022/05/25 05:28:39;;;;;;;6.13;3.90;;;;;;;16.31;94.34;100084.69;5036363;28;20047;-73
2022/05/25 05:31:07;;;;;;;5.40;4.28;;;;;;;16.38;94.36;100084.16;5021311;28;20500;-73
2022/05/25 05:33:34;;;;;;;5.95;3.40;;;;;;;16.40;94.62;100078.66;5027780;28;20046;-75
2022/05/25 05:36:16;;;;;;;2.95;2.50;;;;;;;16.43;88.55;100089.09;5015375;28;20021;-74
2022/05/25 05:39:06;;;;;;;4.40;3.05;;;;;;;16.53;88.79;100100.34;5013722;28;20064;-74
2022/05/25 05:41:58;;;;;;;2.80;2.20;;;;;;;16.63;88.27;100107.41;5014310;28;20038;-74
2022/05/25 05:44:51;;;;;;;5.20;2.75;;;;;;;16.65;89.03;100102.69;5014453;28;20495;-74
2022/05/25 05:47:24;;;;;;;2.80;2.35;;;;;;;16.64;88.36;100106.09;5014626;28;20064;-74
2022/05/25 05:49:51;;;;;;;3.75;2.80;;;;;;;16.73;87.43;100097.97;4997096;28;20046;-74
2022/05/25 05:52:31;;;;;;;8.57;2.60;;;;;;;16.84;87.29;100097.16;4997211;28;20065;-73
2022/05/25 05:54:57;;;;;;;3.17;2.60;;;;;;;16.98;87.55;100086.63;5013237;28;20037;-75
2022/05/25 05:57:23;;;;;;;3.78;3.00;;;;;;;17.14;86.61;100100.19;5012996;28;20387;-73
2022/05/25 05:59:55;;;;;;;4.30;2.85;;;;;;;17.23;84.90;100106.41;5014167;28;20038;-75
2022/05/25 06:02:21;;;;;;;3.67;2.05;;;;;;;17.31;83.92;100106.66;5013320;28;20042;-75
2022/05/25 06:04:47;;;;;;;2.92;2.30;;;;;;;17.36;85.24;100099.31;5013178;28;20108;-73
2022/05/25 06:07:15;;;;;;;2.85;2.42;;;;;;;17.40;84.33;100103.47;5012928;28;20116;-73
2022/05/25 06:09:40;;;;;;;4.38;2.40;;;;;;;17.39;84.84;100104.78;5014453;28;20034;-74
2022/05/25 06:12:07;;;;;;;2.42;2.22;;;;;;;17.39;84.16;100113.41;5013037;28;20505;-73
2022/05/25 06:14:34;;;;;;;2.63;2.40;;;;;;;17.06;84.41;100125.88;5013040;28;20115;-74
2022/05/25 06:19:45;;;;;;;4.15;2.78;;;;;;;16.95;86.24;100133.75;5014483;28;20053;-74
2022/05/25 06:22:14;;;;;;;4.35;3.00;;;;;;;16.97;87.92;100140.53;5014287;28;20118;-74
2022/05/25 06:24:46;;;;;;;5.00;3.00;;;;;;;16.94;87.54;100137.91;5012892;28;20037;-74
2022/05/25 06:27:13;;;;;;;5.70;2.90;;;;;;;16.98;87.84;100147.84;4996252;28;20022;-73
2022/05/25 06:29:45;;;;;;;4.65;3.10;;;;;;;16.96;88.25;100147.59;5012676;28;20034;-75
2022/05/25 06:32:20;;;;;;;3.78;2.75;;;;;;;16.92;88.66;100155.72;4996676;28;20125;-74
2022/05/25 06:34:50;;;;;;;4.97;3.30;;;;;;;16.93;89.28;100160.16;5044822;28;20052;-74
2022/05/25 06:37:20;;;;;;;4.45;3.33;;;;;;;16.94;89.29;100158.84;5036237;28;20533;-74
2022/05/25 06:39:45;;;;;;;4.18;2.70;;;;;;;16.81;88.14;100159.41;5015558;28;20506;-73
2022/05/25 06:42:12;;;;;;;4.35;2.50;;;;;;;16.75;87.82;100152.09;5019062;28;20056;-73
2022/05/25 06:44:41;;;;;;;4.90;3.40;;;;;;;16.83;88.49;100171.16;5035877;28;20043;-73
2022/05/25 06:47:07;;;;;;;5.88;3.97;;;;;;;16.80;87.14;100171.44;5019222;28;20080;-73
2022/05/25 06:49:34;;;;;;;6.35;4.20;;;;;;;16.79;88.53;100167.00;5035550;28;20064;-74
2022/05/25 06:52:09;;;;;;;5.65;2.85;;;;;;;16.80;88.80;100172.22;5053333;28;20025;-73
2022/05/25 06:54:34;;;;;;;4.68;3.40;;;;;;;16.98;89.12;100167.19;5053785;28;20163;-75
2022/05/25 06:57:02;;;;;;;4.38;3.15;;;;;;;16.98;88.71;100173.75;5053061;28;20088;-74
2022/05/25 06:59:28;;;;;;;4.60;2.90;;;;;;;16.95;88.78;100176.91;5035358;28;20028;-73
2022/05/25 07:01:54;;;;;;;4.72;3.30;;;;;;;16.83;89.20;100176.13;5053141;28;20029;-73
2022/05/25 07:04:21;;;;;;;4.43;2.80;;;;;;;16.70;89.33;100175.91;5034886;28;20458;-73
2022/05/25 07:06:47;;;;;;;5.22;3.38;;;;;;;16.74;88.74;100182.97;5035378;28;20052;-74
2022/05/25 07:09:14;;;;;;;4.45;3.78;;;;;;;16.73;88.72;100186.34;5035627;28;20036;-73
2022/05/25 07:11:41;;;;;;;3.63;3.15;;;;;;;16.84;88.22;100192.88;5035263;28;20025;-73
2022/05/25 07:14:10;;;;;;;4.85;3.03;;;;;;;16.83;88.54;100190.53;5052847;28;20496;-73
2022/05/25 07:16:36;;;;;;;9.52;3.85;;;;;;;16.80;88.48;100200.22;5018860;28;20095;-73
2022/05/25 07:19:01;;;;;;;7.00;4.43;;;;;;;16.83;88.68;100197.06;5052429;28;20037;-73
2022/05/25 07:21:31;;;;;;;5.18;3.00;;;;;;;16.91;87.43;100199.41;5035001;28;20044;-73
2022/05/25 07:24:00;;;;;;;3.30;2.70;;;;;;;16.95;87.93;100203.59;5035451;28;20103;-73
2022/05/25 07:26:41;;;;;;;4.03;3.17;;;;;;;16.97;86.96;100203.81;5035392;28;20398;-75
2022/05/25 07:29:06;;;;;;;4.90;3.27;;;;;;;16.99;87.96;100209.84;5053086;28;20051;-73
2022/05/25 07:31:55;;;;;;;4.43;2.42;;;;;;;16.91;86.88;100205.97;5052693;28;20045;-74
2022/05/25 07:34:25;;;;;;;6.03;3.38;;;;;;;16.88;87.52;100207.00;5019875;28;20092;-73
2022/05/25 07:36:57;;;;;;;10.38;3.30;;;;;;;16.83;89.39;100214.31;5012062;28;20037;-73
2022/05/25 07:39:24;;;;;;;;;;;;;;;16.79;90.39;100215.91;5012401;28;20056;-74
2022/05/25 07:41:53;;;;;;;7.47;2.38;;;;;;;16.87;88.14;100219.84;5013108;28;20055;-74
2022/05/25 07:44:27;;;;;;;3.25;2.63;;;;;;;16.93;87.79;100226.34;4979520;28;20030;-74
2022/05/25 07:46:53;;;;;;;3.28;2.75;;;;;;;17.03;89.41;100221.09;5012130;28;20042;-73
2022/05/25 07:49:19;;;;;;;3.17;2.50;;;;;;;17.07;87.90;100228.13;4994326;28;20041;-74
2022/05/25 07:51:45;;;;;;;4.28;3.33;;;;;;;17.12;89.88;100224.47;5015907;28;20112;-74
2022/05/25 07:54:12;;;;;;;3.10;2.80;;;;;;;17.07;88.35;100222.38;5015749;28;20038;-73
2022/05/25 07:56:39;;;;;;;3.03;2.60;;;;;;;17.09;89.14;100221.88;5015439;28;20036;-73
2022/05/25 07:59:12;;;;;;;4.70;3.58;;;;;;;17.10;89.78;100223.44;5015381;28;20372;-73
2022/05/25 08:07:34;;;;;;;4.50;2.45;;;;;;;17.29;86.95;100230.19;5015871;28;20044;-74
2022/05/25 08:10:11;;;;;;;3.38;3.08;;;;;;;17.46;86.98;100224.38;5015318;28;20042;-73
2022/05/25 08:12:39;;;;;;;5.80;2.38;;;;;;;17.56;85.92;100229.31;5015123;28;20467;-74
2022/05/25 08:15:06;;;;;;;3.67;2.97;;;;;;;17.53;87.34;100224.59;4998953;28;20108;-74
2022/05/25 08:17:33;;;;;;;5.15;2.65;;;;;;;17.66;86.16;100238.47;4998797;28;20034;-73
2022/05/25 08:19:59;;;;;;;2.78;2.50;;;;;;;17.63;84.78;100245.28;5016735;28;20034;-74
2022/05/25 08:22:26;;;;;;;3.17;2.13;;;;;;;17.63;83.24;100243.19;5016605;28;20034;-74
2022/05/25 08:24:52;;;;;;;2.58;2.00;;;;;;;17.66;81.03;100244.25;4998748;28;20046;-74
2022/05/25 08:27:19;;;;;;;3.00;2.20;;;;;;;17.70;82.01;100244.75;5014994;28;20029;-74
2022/05/25 08:29:47;;;;;;;3.90;2.22;;;;;;;17.70;83.21;100233.22;5016240;28;20030;-74
2022/05/25 08:32:14;;;;;;;3.70;2.80;;;;;;;17.65;83.27;100242.69;5014636;28;20514;-74
2022/05/25 08:34:40;;;;;;;3.30;2.65;;;;;;;17.44;84.47;100233.56;5014621;28;20045;-75
2022/05/25 08:37:10;;;;;;;6.78;2.75;;;;;;;17.31;84.19;100232.56;4998119;28;20387;-74
2022/05/25 08:39:38;;;;;;;6.03;2.80;;;;;;;17.30;84.50;100230.97;5016071;28;20044;-74
2022/05/25 08:42:12;;;;;;;3.05;2.63;;;;;;;17.38;82.04;100217.59;5014726;28;20022;-75
2022/05/25 08:44:41;;;;;;;3.30;2.70;;;;;;;17.46;82.65;100219.41;5014741;28;20120;-73
2022/05/25 08:47:16;;;;;;;2.33;2.10;;;;;;;17.19;83.33;100229.69;4998915;28;20041;-75
2022/05/25 08:49:45;;;;;;;4.57;2.53;;;;;;;16.94;84.30;100219.28;5015945;28;20030;-73
2022/05/25 08:52:33;;;;;;;3.53;1.83;;;;;;;16.58;86.47;100215.38;4982056;28;20185;-74
2022/05/25 08:55:01;;;;;;;3.85;2.08;;;;;;;16.40;87.73;100210.91;5014432;28;20057;-74
2022/05/25 08:57:37;;;;;;;2.70;2.20;;;;;;;16.40;89.33;100201.50;4998719;28;20038;-74
2022/05/25 09:00:10;;;;;;;3.78;2.60;;;;;;;16.73;88.45;100203.59;5014310;28;20425;-74
2022/05/25 09:02:58;;;;;;;4.00;3.25;;;;;;;17.06;87.62;100203.56;5013505;28;20100;-74
2022/05/25 09:05:48;;;;;;;4.75;3.03;;;;;;;17.21;88.97;100192.53;5015261;28;20034;-74
2022/05/25 09:08:48;;;;;;;5.07;3.13;;;;;;;17.72;86.51;100204.66;4997748;28;20436;-74
2022/05/25 09:11:22;;;;;;;5.53;4.53;;;;;;;18.26;83.94;100225.03;4982119;28;20048;-74
2022/05/25 09:14:05;;;;;;;3.50;3.20;;;;;;;18.57;77.28;100243.97;5013846;28;20501;-74
2022/05/25 09:16:34;;;;;;;4.95;3.50;;;;;;;18.74;76.38;100244.63;5014266;28;20030;-73
2022/05/25 09:19:09;;;;;;;8.68;4.18;;;;;;;18.95;75.98;100248.63;4997941;28;20038;-74
2022/05/25 09:21:39;;;;;;;6.90;4.05;;;;;;;19.14;76.97;100248.69;5014574;28;20224;-74
2022/05/25 09:24:11;;;;;;;5.38;2.40;;;;;;;19.24;74.87;100246.25;4982038;28;20097;-77
2022/05/25 09:26:51;;;;;;;3.83;3.42;;;;;;;19.33;72.93;100249.56;5014120;28;20120;-77
2022/05/25 09:29:16;;;;;;;3.03;2.65;;;;;;;19.45;72.74;100247.34;5013950;28;20030;-77
2022/05/25 09:32:08;;;;;;;3.10;1.27;;;;;;;19.53;73.65;100242.53;5013752;28;20041;-77
2022/05/25 09:34:42;;;;;;;;;;;;;;;19.54;73.98;100249.88;5013513;28;20050;-77
2022/05/25 09:37:33;;;;;;;2.00;1.48;;;;;;;19.67;72.11;100263.66;5013853;28;19913;-77
2022/05/25 09:40:19;;;;;;;3.38;1.75;;;;;;;19.86;71.48;100257.91;5014676;28;20419;-77
2022/05/25 09:42:50;;;;;;;2.53;1.77;;;;;;;19.93;69.78;100252.25;5013704;28;20034;-77
2022/05/25 09:45:18;;;;;;;3.60;1.50;;;;;;;20.07;71.67;100258.94;5013452;28;20044;-76
2022/05/25 09:47:46;;;;;;;2.70;2.00;;;;;;;20.11;71.65;100257.28;5013462;28;20057;-77
2022/05/25 09:50:33;;;;;;;4.35;2.95;;;;;;;20.28;69.28;100257.03;4997341;28;20061;-77
2022/05/25 09:53:04;;;;;;;2.00;1.80;;;;;;;20.39;67.44;100262.69;5013175;28;20045;-77
2022/05/25 09:55:58;;;;;;;1.57;1.20;;;;;;;20.59;67.82;100258.44;4985811;28;20064;-79
2022/05/25 09:58:33;;;;;;;0.73;0.73;;;;;;;20.83;66.32;100257.53;5013483;28;20030;-77
2022/05/25 10:01:16;;;;;;;1.55;1.13;;;;;;;20.97;64.74;100267.81;5013170;28;20030;-77
2022/05/25 10:04:02;;;;;;;1.92;0.70;;;;;;;21.18;62.20;100273.78;4982728;28;20391;-77
2022/05/25 10:06:30;;;;;;;1.02;0.70;;;;;;;21.20;62.24;100268.25;5012982;28;20037;-77
2022/05/25 10:09:20;;;;;;;1.92;0.60;;;;;;;21.11;61.50;100281.00;5014804;28;20028;-78
2022/05/25 10:11:57;;;;;;;0.95;0.80;;;;;;;21.06;63.01;100291.38;5014638;28;20029;-78
2022/05/25 10:14:39;;;;;;;1.17;0.88;;;;;;;21.07;64.16;100277.63;5012020;28;20037;-77
2022/05/25 10:17:10;;;;;;;1.70;0.95;;;;;;;21.10;63.00;100279.44;5013002;28;20022;-77
2022/05/25 10:19:48;;;;;;;5.05;3.20;;;;;;;21.15;62.22;100266.22;5015250;28;20022;-78
2022/05/25 10:22:32;;;;;;;1.90;1.25;;;;;;;21.20;62.16;100257.44;5012772;28;20030;-77
2022/05/25 10:25:06;;;;;;;1.58;1.27;;;;;;;21.06;61.54;100252.91;5013952;28;20025;-77
2022/05/25 10:27:39;;;;;;;2.08;1.40;;;;;;;21.04;63.49;100250.56;5014435;28;20041;-78
2022/05/25 10:39:41;;;;;;;1.42;1.00;;;;;;;20.72;65.26;100257.72;4965046;28;20482;-77
2022/05/25 10:42:25;;;;;;;2.05;1.80;;;;;;;20.95;67.43;100247.31;4991713;28;20475;-78
2022/05/25 10:45:09;;;;;;;2.35;1.70;;;;;;;21.00;64.71;100255.91;5014356;28;20048;-77
2022/05/25 10:47:54;;;;;;;2.22;1.35;;;;;;;21.02;64.79;100255.34;5012561;28;20104;-77
2022/05/25 10:50:45;;;;;;;2.80;1.38;;;;;;;21.21;63.81;100249.53;5014044;28;20379;-78
2022/05/25 10:53:33;;;;;;;1.67;1.30;;;;;;;21.43;62.52;100249.88;5013805;28;20064;-78
2022/05/25 10:56:19;;;;;;;2.35;1.30;;;;;;;21.57;64.82;100252.75;5015286;28;20026;-77
2022/05/25 10:59:02;;;;;;;1.08;0.98;;;;;;;21.68;64.31;100256.22;5013757;28;20049;-78
2022/05/25 11:01:35;;;;;;;1.75;1.20;;;;;;;21.86;60.28;100257.44;5012373;28;20037;-77
2022/05/25 11:04:22;;;;;;;1.00;0.90;;;;;;;22.18;62.44;100252.28;5014701;28;20030;-74
2022/05/25 11:07:20;;;;;;;0.70;0.70;;;;;;;22.64;56.93;100241.19;5012138;28;20042;-74
2022/05/25 11:10:17;;;;;;;1.60;1.48;;;;;;;22.98;56.34;100241.91;5013500;28;20033;-75
2022/05/25 11:13:09;;;;;;;1.25;1.08;;;;;;;23.07;56.26;100246.44;5013733;28;20029;-76
2022/05/25 11:16:11;;;;;;;3.13;1.13;;;;;;;23.25;54.51;100251.22;5013718;28;20053;-76
2022/05/25 11:19:15;;;;;;;2.17;1.23;;;;;;;23.30;54.26;100253.19;5013228;28;20471;-76
2022/05/25 11:21:44;;;;;;;1.33;0.95;;;;;;;23.45;54.48;100246.75;5013036;28;20026;-75
2022/05/25 11:24:35;;;;;;;1.20;1.10;;;;;;;23.40;52.79;100260.06;5013468;28;20087;-77
2022/05/25 11:27:21;;;;;;;1.05;1.00;;;;;;;23.42;53.99;100262.41;5016608;28;20030;-77
2022/05/25 11:30:22;;;;;;;2.00;1.27;;;;;;;23.21;53.95;100263.22;5017522;28;20091;-78
2022/05/25 11:33:36;;;;;;;1.90;1.48;;;;;;;22.98;54.10;100262.25;5017193;28;20486;-76
2022/05/25 11:36:27;;;;;;;3.55;1.35;;;;;;;22.95;55.37;100263.38;4980920;28;20045;-76
2022/05/25 11:39:14;;;;;;;1.65;1.20;;;;;;;22.90;55.07;100263.50;5057191;28;20359;-76
2022/05/25 11:42:10;;;;;;;1.10;1.10;;;;;;;22.92;56.12;100276.13;5038905;28;20021;-76
2022/05/25 11:45:06;;;;;;;2.63;1.50;;;;;;;23.03;56.04;100275.88;5038222;28;20029;-75
2022/05/25 11:47:50;;;;;;;2.45;1.52;;;;;;;23.08;55.86;100280.75;5056515;28;20079;-77
2022/05/25 11:50:35;;;;;;;5.40;1.70;;;;;;;23.13;55.97;100276.13;5056844;28;20025;-75
2022/05/25 11:53:20;;;;;;;1.55;1.45;;;;;;;22.81;55.82;100274.28;5056739;28;20033;-75
2022/05/25 11:56:15;;;;;;;1.92;1.83;;;;;;;22.50;56.10;100268.72;5038834;28;20045;-77
2022/05/25 11:58:59;;;;;;;3.03;2.58;;;;;;;22.44;58.35;100273.88;5056824;28;20075;-73
2022/05/25 12:01:38;;;;;;;2.88;2.40;;;;;;;22.47;58.88;100275.63;5038628;28;20025;-76
2022/05/25 12:04:10;;;;;;;2.90;2.15;;;;;;;22.24;59.32;100278.28;5022018;28;20021;-75
2022/05/25 12:06:59;;;;;;;1.77;1.67;;;;;;;22.06;59.22;100270.47;5038452;28;20028;-76
2022/05/25 12:10:02;;;;;;;3.42;2.35;;;;;;;21.62;60.49;100278.75;5056589;28;20075;-77
2022/05/25 12:12:40;;;;;;;2.90;2.13;;;;;;;21.58;61.35;100283.31;5022810;28;20067;-75
2022/05/25 12:15:19;;;;;;;2.38;2.17;;;;;;;21.49;62.49;100278.75;5021794;28;20029;-76
2022/05/25 12:18:02;;;;;;;2.20;2.00;;;;;;;21.33;63.49;100277.72;5038090;28;20359;-76
2022/05/25 12:20:59;;;;;;;2.22;2.03;;;;;;;21.04;62.94;100275.84;5038309;28;20044;-77
2022/05/25 12:23:55;;;;;;;3.60;2.40;;;;;;;20.91;62.96;100272.94;5024289;28;20429;-75
2022/05/25 12:26:27;;;;;;;2.28;1.85;;;;;;;20.55;65.36;100278.25;5036857;28;20375;-75
2022/05/25 12:29:15;;;;;;;2.42;2.00;;;;;;;20.38;66.62;100287.16;5022303;28;20128;-75